Oak Hills, California
Current Conditions -  °F | °C
As of 7:55 AM on Thursday 27 Nov 2014 (Local Time) from KVCV Reporting Station
Clear Clear  
Wind Chill: 39°   Ceiling: Unl
Heat Index: 43°   Visibility: 10mi
Dew Point: 16°   Wind: 6mph
Humidity: 34%   Direction: 190°S
Pressure: 30.3"   Gusts: NA
Location:  34.3973°N, 117.399°W
Report Text: KVCV 271555Z AUTO 19005KT 10SM CLR 06/M09 A3030 RMK AO2
Loading
Personal Weather Stations






























Interactive Weather Map New forecast layout! Learn more

10-Day Weather Forecast

Advertisements
Track Severe Weather on mobile